sensor_id;sensor_type;location;lat;lon;timestamp;P1;durP1;ratioP1;P2;durP2;ratioP2
15812;SDS011;8007;51.404;6.304;2023-08-12T00:01:52;22.40;;;16.17;;
15812;SDS011;8007;51.404;6.304;2023-08-12T00:03:55;20.92;;;15.70;;
15812;SDS011;8007;51.404;6.304;2023-08-12T00:05:57;21.87;;;16.23;;
15812;SDS011;8007;51.404;6.304;2023-08-12T00:08:03;21.88;;;16.17;;
15812;SDS011;8007;51.404;6.304;2023-08-12T00:10:05;19.57;;;15.40;;
15812;SDS011;8007;51.404;6.304;2023-08-12T00:12:08;22.33;;;16.83;;
15812;SDS011;8007;51.404;6.304;2023-08-12T00:14:11;20.83;;;16.03;;
15812;SDS011;8007;51.404;6.304;2023-08-12T00:16:13;25.47;;;16.50;;
15812;SDS011;8007;51.404;6.304;2023-08-12T00:18:16;22.27;;;16.90;;
15812;SDS011;8007;51.404;6.304;2023-08-12T00:20:19;24.53;;;17.03;;
15812;SDS011;8007;51.404;6.304;2023-08-12T00:22:21;19.67;;;15.70;;
15812;SDS011;8007;51.404;6.304;2023-08-12T00:24:25;22.93;;;15.30;;
15812;SDS011;8007;51.404;6.304;2023-08-12T00:26:28;23.17;;;15.53;;
15812;SDS011;8007;51.404;6.304;2023-08-12T00:28:31;19.93;;;15.60;;
15812;SDS011;8007;51.404;6.304;2023-08-12T00:30:34;17.97;;;15.07;;
15812;SDS011;8007;51.404;6.304;2023-08-12T00:32:36;20.30;;;15.97;;
15812;SDS011;8007;51.404;6.304;2023-08-12T00:34:38;22.30;;;15.05;;
15812;SDS011;8007;51.404;6.304;2023-08-12T00:36:41;19.52;;;14.85;;
15812;SDS011;8007;51.404;6.304;2023-08-12T00:38:43;20.70;;;15.97;;
15812;SDS011;8007;51.404;6.304;2023-08-12T00:40:47;19.63;;;15.52;;
15812;SDS011;8007;51.404;6.304;2023-08-12T00:42:49;18.50;;;15.60;;
15812;SDS011;8007;51.404;6.304;2023-08-12T00:44:52;23.55;;;16.48;;
15812;SDS011;8007;51.404;6.304;2023-08-12T00:46:54;22.77;;;16.43;;
15812;SDS011;8007;51.404;6.304;2023-08-12T00:48:57;17.98;;;14.35;;
15812;SDS011;8007;51.404;6.304;2023-08-12T00:51:01;21.10;;;16.20;;
15812;SDS011;8007;51.404;6.304;2023-08-12T00:53:04;19.40;;;15.77;;
15812;SDS011;8007;51.404;6.304;2023-08-12T00:55:06;22.08;;;17.23;;
15812;SDS011;8007;51.404;6.304;2023-08-12T00:57:10;25.75;;;16.98;;
15812;SDS011;8007;51.404;6.304;2023-08-12T00:59:13;21.27;;;15.90;;
15812;SDS011;8007;51.404;6.304;2023-08-12T01:01:16;21.63;;;16.30;;
15812;SDS011;8007;51.404;6.304;2023-08-12T01:03:19;20.45;;;15.80;;
15812;SDS011;8007;51.404;6.304;2023-08-12T01:05:22;22.43;;;15.27;;
15812;SDS011;8007;51.404;6.304;2023-08-12T01:07:24;22.30;;;15.77;;
15812;SDS011;8007;51.404;6.304;2023-08-12T01:09:27;19.30;;;15.40;;
15812;SDS011;8007;51.404;6.304;2023-08-12T01:11:32;23.67;;;17.07;;
15812;SDS011;8007;51.404;6.304;2023-08-12T01:13:41;23.87;;;17.87;;
15812;SDS011;8007;51.404;6.304;2023-08-12T01:15:48;21.40;;;17.00;;
15812;SDS011;8007;51.404;6.304;2023-08-12T01:17:54;25.20;;;16.77;;
15812;SDS011;8007;51.404;6.304;2023-08-12T01:19:57;24.85;;;16.95;;
15812;SDS011;8007;51.404;6.304;2023-08-12T01:22:00;23.17;;;17.77;;
15812;SDS011;8007;51.404;6.304;2023-08-12T01:24:05;24.40;;;18.13;;
15812;SDS011;8007;51.404;6.304;2023-08-12T01:26:08;23.48;;;18.30;;
15812;SDS011;8007;51.404;6.304;2023-08-12T01:28:11;28.47;;;18.77;;
15812;SDS011;8007;51.404;6.304;2023-08-12T01:30:14;24.13;;;18.80;;
15812;SDS011;8007;51.404;6.304;2023-08-12T01:32:30;29.13;;;19.70;;
15812;SDS011;8007;51.404;6.304;2023-08-12T01:34:40;27.43;;;19.27;;
15812;SDS011;8007;51.404;6.304;2023-08-12T01:36:45;23.60;;;17.67;;
15812;SDS011;8007;51.404;6.304;2023-08-12T01:38:51;24.03;;;17.87;;
15812;SDS011;8007;51.404;6.304;2023-08-12T01:40:53;23.43;;;16.60;;
15812;SDS011;8007;51.404;6.304;2023-08-12T01:42:56;29.33;;;18.53;;
15812;SDS011;8007;51.404;6.304;2023-08-12T01:44:58;25.93;;;18.67;;
15812;SDS011;8007;51.404;6.304;2023-08-12T01:47:02;25.43;;;18.57;;
15812;SDS011;8007;51.404;6.304;2023-08-12T01:49:04;27.90;;;19.47;;
15812;SDS011;8007;51.404;6.304;2023-08-12T01:51:07;25.43;;;19.57;;
15812;SDS011;8007;51.404;6.304;2023-08-12T01:53:10;23.77;;;17.37;;
15812;SDS011;8007;51.404;6.304;2023-08-12T01:55:12;31.90;;;19.33;;
15812;SDS011;8007;51.404;6.304;2023-08-12T01:57:16;29.37;;;20.17;;
15812;SDS011;8007;51.404;6.304;2023-08-12T01:59:19;25.27;;;18.37;;
15812;SDS011;8007;51.404;6.304;2023-08-12T02:01:20;25.80;;;18.23;;
15812;SDS011;8007;51.404;6.304;2023-08-12T02:03:22;27.53;;;19.13;;
15812;SDS011;8007;51.404;6.304;2023-08-12T02:05:25;29.33;;;21.13;;
15812;SDS011;8007;51.404;6.304;2023-08-12T02:07:27;26.93;;;19.23;;
15812;SDS011;8007;51.404;6.304;2023-08-12T02:09:30;29.00;;;20.40;;
15812;SDS011;8007;51.404;6.304;2023-08-12T02:11:32;26.07;;;19.97;;
15812;SDS011;8007;51.404;6.304;2023-08-12T02:13:36;27.60;;;20.30;;
15812;SDS011;8007;51.404;6.304;2023-08-12T02:15:38;25.10;;;18.83;;
15812;SDS011;8007;51.404;6.304;2023-08-12T02:17:41;26.00;;;18.87;;
15812;SDS011;8007;51.404;6.304;2023-08-12T02:19:42;24.30;;;17.30;;
15812;SDS011;8007;51.404;6.304;2023-08-12T02:21:45;27.77;;;19.20;;
15812;SDS011;8007;51.404;6.304;2023-08-12T02:23:47;25.63;;;16.90;;
15812;SDS011;8007;51.404;6.304;2023-08-12T02:25:49;27.43;;;18.57;;
15812;SDS011;8007;51.404;6.304;2023-08-12T02:27:54;22.17;;;18.07;;
15812;SDS011;8007;51.404;6.304;2023-08-12T02:29:58;22.13;;;17.43;;
15812;SDS011;8007;51.404;6.304;2023-08-12T02:32:00;22.00;;;17.60;;
15812;SDS011;8007;51.404;6.304;2023-08-12T02:34:02;23.70;;;17.57;;
15812;SDS011;8007;51.404;6.304;2023-08-12T02:36:05;22.77;;;18.57;;
15812;SDS011;8007;51.404;6.304;2023-08-12T02:38:07;21.80;;;17.60;;
15812;SDS011;8007;51.404;6.304;2023-08-12T02:40:10;21.50;;;16.30;;
15812;SDS011;8007;51.404;6.304;2023-08-12T02:42:13;20.50;;;15.60;;
15812;SDS011;8007;51.404;6.304;2023-08-12T02:44:15;20.53;;;15.80;;
15812;SDS011;8007;51.404;6.304;2023-08-12T02:46:19;21.60;;;16.30;;
15812;SDS011;8007;51.404;6.304;2023-08-12T02:48:22;20.40;;;16.63;;
15812;SDS011;8007;51.404;6.304;2023-08-12T02:50:24;19.77;;;15.10;;
15812;SDS011;8007;51.404;6.304;2023-08-12T02:52:27;21.07;;;16.37;;
15812;SDS011;8007;51.404;6.304;2023-08-12T02:54:29;20.80;;;15.20;;
15812;SDS011;8007;51.404;6.304;2023-08-12T02:56:31;22.90;;;16.40;;
15812;SDS011;8007;51.404;6.304;2023-08-12T02:58:34;22.37;;;17.17;;
15812;SDS011;8007;51.404;6.304;2023-08-12T03:00:40;22.37;;;16.70;;
15812;SDS011;8007;51.404;6.304;2023-08-12T03:02:45;24.40;;;17.57;;
15812;SDS011;8007;51.404;6.304;2023-08-12T03:04:47;25.10;;;18.33;;
15812;SDS011;8007;51.404;6.304;2023-08-12T03:06:50;24.53;;;17.37;;
15812;SDS011;8007;51.404;6.304;2023-08-12T03:08:52;25.63;;;17.93;;
15812;SDS011;8007;51.404;6.304;2023-08-12T03:10:58;25.17;;;17.83;;
15812;SDS011;8007;51.404;6.304;2023-08-12T03:13:01;20.43;;;16.10;;
15812;SDS011;8007;51.404;6.304;2023-08-12T03:15:03;20.33;;;16.27;;
15812;SDS011;8007;51.404;6.304;2023-08-12T03:17:07;22.30;;;16.50;;
15812;SDS011;8007;51.404;6.304;2023-08-12T03:19:11;23.07;;;16.03;;
15812;SDS011;8007;51.404;6.304;2023-08-12T03:21:14;20.53;;;16.23;;
15812;SDS011;8007;51.404;6.304;2023-08-12T03:23:16;23.00;;;16.15;;
15812;SDS011;8007;51.404;6.304;2023-08-12T03:25:19;22.17;;;16.43;;
15812;SDS011;8007;51.404;6.304;2023-08-12T03:27:22;23.00;;;16.40;;
15812;SDS011;8007;51.404;6.304;2023-08-12T03:29:24;23.55;;;15.98;;
15812;SDS011;8007;51.404;6.304;2023-08-12T03:31:27;22.58;;;16.95;;
15812;SDS011;8007;51.404;6.304;2023-08-12T03:33:29;27.70;;;17.53;;
15812;SDS011;8007;51.404;6.304;2023-08-12T03:35:35;26.77;;;17.87;;
15812;SDS011;8007;51.404;6.304;2023-08-12T03:37:37;25.17;;;17.13;;
15812;SDS011;8007;51.404;6.304;2023-08-12T03:39:40;24.63;;;18.27;;
15812;SDS011;8007;51.404;6.304;2023-08-12T03:41:42;24.47;;;18.67;;
15812;SDS011;8007;51.404;6.304;2023-08-12T03:43:45;24.23;;;17.90;;
15812;SDS011;8007;51.404;6.304;2023-08-12T03:45:47;24.73;;;17.57;;
15812;SDS011;8007;51.404;6.304;2023-08-12T03:47:50;26.37;;;18.63;;
15812;SDS011;8007;51.404;6.304;2023-08-12T03:49:52;27.63;;;19.30;;
15812;SDS011;8007;51.404;6.304;2023-08-12T03:51:56;27.00;;;19.63;;
15812;SDS011;8007;51.404;6.304;2023-08-12T03:53:59;26.57;;;18.83;;
15812;SDS011;8007;51.404;6.304;2023-08-12T03:56:01;29.13;;;19.60;;
15812;SDS011;8007;51.404;6.304;2023-08-12T03:58:04;25.40;;;19.13;;
15812;SDS011;8007;51.404;6.304;2023-08-12T04:00:06;25.95;;;17.75;;
15812;SDS011;8007;51.404;6.304;2023-08-12T04:02:09;25.67;;;19.00;;
15812;SDS011;8007;51.404;6.304;2023-08-12T04:04:12;26.30;;;18.33;;
15812;SDS011;8007;51.404;6.304;2023-08-12T04:06:15;25.08;;;18.02;;
15812;SDS011;8007;51.404;6.304;2023-08-12T04:08:19;24.23;;;17.67;;
15812;SDS011;8007;51.404;6.304;2023-08-12T04:10:22;27.90;;;18.37;;
15812;SDS011;8007;51.404;6.304;2023-08-12T04:12:25;26.40;;;19.63;;
15812;SDS011;8007;51.404;6.304;2023-08-12T04:14:27;26.37;;;18.67;;
15812;SDS011;8007;51.404;6.304;2023-08-12T04:16:30;29.67;;;20.30;;
15812;SDS011;8007;51.404;6.304;2023-08-12T04:18:32;30.13;;;19.67;;
15812;SDS011;8007;51.404;6.304;2023-08-12T04:20:34;26.37;;;19.67;;
15812;SDS011;8007;51.404;6.304;2023-08-12T04:22:38;28.10;;;20.57;;
15812;SDS011;8007;51.404;6.304;2023-08-12T04:24:42;29.47;;;19.33;;
15812;SDS011;8007;51.404;6.304;2023-08-12T04:26:44;31.77;;;21.10;;
15812;SDS011;8007;51.404;6.304;2023-08-12T04:28:46;32.93;;;21.93;;
15812;SDS011;8007;51.404;6.304;2023-08-12T04:30:48;34.63;;;20.27;;
15812;SDS011;8007;51.404;6.304;2023-08-12T04:32:52;31.33;;;21.80;;
15812;SDS011;8007;51.404;6.304;2023-08-12T04:34:55;35.57;;;22.77;;
15812;SDS011;8007;51.404;6.304;2023-08-12T04:36:57;33.63;;;22.10;;
15812;SDS011;8007;51.404;6.304;2023-08-12T04:39:00;34.90;;;23.17;;
15812;SDS011;8007;51.404;6.304;2023-08-12T04:41:04;39.40;;;22.90;;
15812;SDS011;8007;51.404;6.304;2023-08-12T04:43:07;34.97;;;22.43;;
15812;SDS011;8007;51.404;6.304;2023-08-12T04:45:09;39.73;;;23.37;;
15812;SDS011;8007;51.404;6.304;2023-08-12T04:47:11;39.40;;;23.00;;
15812;SDS011;8007;51.404;6.304;2023-08-12T04:49:13;39.93;;;23.73;;
15812;SDS011;8007;51.404;6.304;2023-08-12T04:51:15;34.53;;;23.17;;
15812;SDS011;8007;51.404;6.304;2023-08-12T04:53:17;35.73;;;22.60;;
15812;SDS011;8007;51.404;6.304;2023-08-12T04:55:20;40.93;;;24.93;;
15812;SDS011;8007;51.404;6.304;2023-08-12T04:57:23;38.90;;;23.90;;
15812;SDS011;8007;51.404;6.304;2023-08-12T04:59:25;39.03;;;23.90;;
15812;SDS011;8007;51.404;6.304;2023-08-12T05:01:27;40.63;;;22.47;;
15812;SDS011;8007;51.404;6.304;2023-08-12T05:03:30;39.20;;;23.53;;
15812;SDS011;8007;51.404;6.304;2023-08-12T05:05:32;39.00;;;23.67;;
15812;SDS011;8007;51.404;6.304;2023-08-12T05:07:35;37.87;;;23.40;;
15812;SDS011;8007;51.404;6.304;2023-08-12T05:09:37;36.47;;;23.73;;
15812;SDS011;8007;51.404;6.304;2023-08-12T05:11:40;38.63;;;24.00;;
15812;SDS011;8007;51.404;6.304;2023-08-12T05:13:43;36.30;;;23.03;;
15812;SDS011;8007;51.404;6.304;2023-08-12T05:15:46;36.30;;;22.23;;
15812;SDS011;8007;51.404;6.304;2023-08-12T05:17:48;41.07;;;23.07;;
15812;SDS011;8007;51.404;6.304;2023-08-12T05:19:51;36.53;;;23.10;;
15812;SDS011;8007;51.404;6.304;2023-08-12T05:21:54;37.87;;;22.87;;
15812;SDS011;8007;51.404;6.304;2023-08-12T05:23:56;36.67;;;22.97;;
15812;SDS011;8007;51.404;6.304;2023-08-12T05:25:58;34.93;;;22.47;;
15812;SDS011;8007;51.404;6.304;2023-08-12T05:28:00;35.73;;;22.20;;
15812;SDS011;8007;51.404;6.304;2023-08-12T05:30:05;33.90;;;22.47;;
15812;SDS011;8007;51.404;6.304;2023-08-12T05:32:08;34.73;;;23.13;;
15812;SDS011;8007;51.404;6.304;2023-08-12T05:34:10;35.53;;;21.33;;
15812;SDS011;8007;51.404;6.304;2023-08-12T05:36:12;33.33;;;21.73;;
15812;SDS011;8007;51.404;6.304;2023-08-12T05:38:15;32.83;;;22.00;;
15812;SDS011;8007;51.404;6.304;2023-08-12T05:40:17;31.13;;;21.40;;
15812;SDS011;8007;51.404;6.304;2023-08-12T05:42:20;30.90;;;20.60;;
15812;SDS011;8007;51.404;6.304;2023-08-12T05:44:25;32.97;;;20.50;;
15812;SDS011;8007;51.404;6.304;2023-08-12T05:46:29;34.17;;;21.67;;
15812;SDS011;8007;51.404;6.304;2023-08-12T05:48:32;31.00;;;21.03;;
15812;SDS011;8007;51.404;6.304;2023-08-12T05:50:34;32.57;;;20.27;;
15812;SDS011;8007;51.404;6.304;2023-08-12T05:52:37;29.93;;;20.23;;
15812;SDS011;8007;51.404;6.304;2023-08-12T05:54:39;30.83;;;20.20;;
15812;SDS011;8007;51.404;6.304;2023-08-12T05:56:41;26.90;;;19.90;;
15812;SDS011;8007;51.404;6.304;2023-08-12T05:58:45;29.97;;;19.47;;
15812;SDS011;8007;51.404;6.304;2023-08-12T06:00:47;26.77;;;20.13;;
15812;SDS011;8007;51.404;6.304;2023-08-12T06:02:51;26.43;;;19.57;;
15812;SDS011;8007;51.404;6.304;2023-08-12T06:04:54;28.27;;;18.37;;
15812;SDS011;8007;51.404;6.304;2023-08-12T06:06:56;23.67;;;18.17;;
15812;SDS011;8007;51.404;6.304;2023-08-12T06:08:58;26.47;;;18.87;;
15812;SDS011;8007;51.404;6.304;2023-08-12T06:11:00;27.23;;;19.23;;
15812;SDS011;8007;51.404;6.304;2023-08-12T06:13:03;24.43;;;18.27;;
15812;SDS011;8007;51.404;6.304;2023-08-12T06:15:06;27.63;;;18.70;;
15812;SDS011;8007;51.404;6.304;2023-08-12T06:17:09;27.67;;;18.47;;
15812;SDS011;8007;51.404;6.304;2023-08-12T06:19:13;24.53;;;18.03;;
15812;SDS011;8007;51.404;6.304;2023-08-12T06:21:15;25.17;;;17.87;;
15812;SDS011;8007;51.404;6.304;2023-08-12T06:23:17;21.87;;;17.10;;
15812;SDS011;8007;51.404;6.304;2023-08-12T06:25:20;21.63;;;16.97;;
15812;SDS011;8007;51.404;6.304;2023-08-12T06:27:22;21.50;;;16.13;;
15812;SDS011;8007;51.404;6.304;2023-08-12T06:29:25;23.13;;;15.50;;
15812;SDS011;8007;51.404;6.304;2023-08-12T06:31:27;17.83;;;14.23;;
15812;SDS011;8007;51.404;6.304;2023-08-12T06:33:28;18.53;;;15.40;;
15812;SDS011;8007;51.404;6.304;2023-08-12T06:35:32;18.80;;;13.40;;
15812;SDS011;8007;51.404;6.304;2023-08-12T06:37:35;17.83;;;13.67;;
15812;SDS011;8007;51.404;6.304;2023-08-12T06:39:37;16.73;;;13.27;;
15812;SDS011;8007;51.404;6.304;2023-08-12T06:41:40;14.90;;;11.97;;
15812;SDS011;8007;51.404;6.304;2023-08-12T06:43:42;15.37;;;11.27;;
15812;SDS011;8007;51.404;6.304;2023-08-12T06:45:45;18.80;;;11.87;;
15812;SDS011;8007;51.404;6.304;2023-08-12T06:47:47;13.03;;;10.37;;
15812;SDS011;8007;51.404;6.304;2023-08-12T06:49:50;13.67;;;10.17;;
15812;SDS011;8007;51.404;6.304;2023-08-12T06:51:54;14.10;;;10.20;;
15812;SDS011;8007;51.404;6.304;2023-08-12T06:53:56;10.67;;;9.57;;
15812;SDS011;8007;51.404;6.304;2023-08-12T06:55:59;11.60;;;9.20;;
15812;SDS011;8007;51.404;6.304;2023-08-12T06:58:02;10.03;;;8.67;;
15812;SDS011;8007;51.404;6.304;2023-08-12T07:00:06;10.83;;;8.57;;
15812;SDS011;8007;51.404;6.304;2023-08-12T07:02:10;10.57;;;8.80;;
15812;SDS011;8007;51.404;6.304;2023-08-12T07:04:11;9.73;;;8.33;;
15812;SDS011;8007;51.404;6.304;2023-08-12T07:06:14;10.40;;;7.93;;
15812;SDS011;8007;51.404;6.304;2023-08-12T07:08:18;9.40;;;7.00;;
15812;SDS011;8007;51.404;6.304;2023-08-12T07:10:21;9.90;;;7.97;;
15812;SDS011;8007;51.404;6.304;2023-08-12T07:12:23;7.53;;;6.30;;
15812;SDS011;8007;51.404;6.304;2023-08-12T07:14:26;7.97;;;7.13;;
15812;SDS011;8007;51.404;6.304;2023-08-12T07:16:31;7.20;;;6.43;;
15812;SDS011;8007;51.404;6.304;2023-08-12T07:18:34;7.30;;;6.60;;
15812;SDS011;8007;51.404;6.304;2023-08-12T07:20:36;8.10;;;6.73;;
15812;SDS011;8007;51.404;6.304;2023-08-12T07:22:41;10.63;;;6.20;;
15812;SDS011;8007;51.404;6.304;2023-08-12T07:24:45;6.73;;;5.47;;
15812;SDS011;8007;51.404;6.304;2023-08-12T07:26:48;7.33;;;6.03;;
15812;SDS011;8007;51.404;6.304;2023-08-12T07:28:53;6.90;;;6.30;;
15812;SDS011;8007;51.404;6.304;2023-08-12T07:30:56;6.97;;;5.43;;
15812;SDS011;8007;51.404;6.304;2023-08-12T07:33:01;6.40;;;5.47;;
15812;SDS011;8007;51.404;6.304;2023-08-12T07:35:06;6.77;;;5.47;;
15812;SDS011;8007;51.404;6.304;2023-08-12T07:37:10;5.70;;;4.93;;
15812;SDS011;8007;51.404;6.304;2023-08-12T07:39:12;6.70;;;5.20;;
15812;SDS011;8007;51.404;6.304;2023-08-12T07:41:16;5.27;;;4.77;;
15812;SDS011;8007;51.404;6.304;2023-08-12T07:43:19;5.27;;;4.77;;
15812;SDS011;8007;51.404;6.304;2023-08-12T07:45:21;5.13;;;4.63;;
15812;SDS011;8007;51.404;6.304;2023-08-12T07:47:24;5.77;;;4.67;;
15812;SDS011;8007;51.404;6.304;2023-08-12T07:49:27;4.77;;;4.10;;
15812;SDS011;8007;51.404;6.304;2023-08-12T07:51:30;4.83;;;4.43;;
15812;SDS011;8007;51.404;6.304;2023-08-12T07:53:33;5.43;;;4.10;;
15812;SDS011;8007;51.404;6.304;2023-08-12T07:55:36;5.67;;;3.60;;
15812;SDS011;8007;51.404;6.304;2023-08-12T07:57:39;4.13;;;3.73;;
15812;SDS011;8007;51.404;6.304;2023-08-12T07:59:42;4.23;;;3.83;;
15812;SDS011;8007;51.404;6.304;2023-08-12T08:01:45;6.03;;;3.30;;
15812;SDS011;8007;51.404;6.304;2023-08-12T08:03:47;3.70;;;3.30;;
15812;SDS011;8007;51.404;6.304;2023-08-12T08:05:49;3.63;;;3.33;;
15812;SDS011;8007;51.404;6.304;2023-08-12T08:07:52;5.70;;;3.53;;
15812;SDS011;8007;51.404;6.304;2023-08-12T08:09:54;4.00;;;3.13;;
15812;SDS011;8007;51.404;6.304;2023-08-12T08:11:57;3.30;;;3.00;;
15812;SDS011;8007;51.404;6.304;2023-08-12T08:14:02;5.27;;;2.90;;
15812;SDS011;8007;51.404;6.304;2023-08-12T08:16:04;3.00;;;2.57;;
15812;SDS011;8007;51.404;6.304;2023-08-12T08:18:07;4.90;;;2.70;;
15812;SDS011;8007;51.404;6.304;2023-08-12T08:20:10;3.53;;;2.60;;
15812;SDS011;8007;51.404;6.304;2023-08-12T08:22:12;3.03;;;2.40;;
15812;SDS011;8007;51.404;6.304;2023-08-12T08:24:14;4.80;;;2.90;;
15812;SDS011;8007;51.404;6.304;2023-08-12T08:26:17;3.40;;;2.70;;
15812;SDS011;8007;51.404;6.304;2023-08-12T08:28:19;3.07;;;2.60;;
15812;SDS011;8007;51.404;6.304;2023-08-12T08:30:23;2.50;;;2.30;;
15812;SDS011;8007;51.404;6.304;2023-08-12T08:32:26;2.43;;;2.20;;
15812;SDS011;8007;51.404;6.304;2023-08-12T08:34:27;3.10;;;2.00;;
15812;SDS011;8007;51.404;6.304;2023-08-12T08:36:30;4.17;;;2.40;;
15812;SDS011;8007;51.404;6.304;2023-08-12T08:38:32;3.23;;;2.60;;
15812;SDS011;8007;51.404;6.304;2023-08-12T08:40:35;4.27;;;2.00;;
15812;SDS011;8007;51.404;6.304;2023-08-12T08:42:38;3.27;;;2.30;;
15812;SDS011;8007;51.404;6.304;2023-08-12T08:44:41;3.00;;;2.10;;
15812;SDS011;8007;51.404;6.304;2023-08-12T08:46:45;4.63;;;2.33;;
15812;SDS011;8007;51.404;6.304;2023-08-12T08:48:48;2.40;;;2.20;;
15812;SDS011;8007;51.404;6.304;2023-08-12T08:50:50;1.90;;;1.80;;
15812;SDS011;8007;51.404;6.304;2023-08-12T08:52:53;3.40;;;2.23;;
15812;SDS011;8007;51.404;6.304;2023-08-12T08:54:58;2.63;;;2.10;;
15812;SDS011;8007;51.404;6.304;2023-08-12T08:57:02;3.40;;;2.28;;
15812;SDS011;8007;51.404;6.304;2023-08-12T08:59:05;2.22;;;2.13;;
15812;SDS011;8007;51.404;6.304;2023-08-12T09:01:07;3.03;;;2.20;;
15812;SDS011;8007;51.404;6.304;2023-08-12T09:03:12;2.30;;;2.03;;
15812;SDS011;8007;51.404;6.304;2023-08-12T09:05:15;2.40;;;1.90;;
15812;SDS011;8007;51.404;6.304;2023-08-12T09:07:18;2.78;;;1.90;;
15812;SDS011;8007;51.404;6.304;2023-08-12T09:09:21;2.30;;;2.10;;
15812;SDS011;8007;51.404;6.304;2023-08-12T09:11:24;2.28;;;1.95;;
15812;SDS011;8007;51.404;6.304;2023-08-12T09:13:27;2.10;;;2.00;;
15812;SDS011;8007;51.404;6.304;2023-08-12T09:15:29;3.37;;;2.40;;
15812;SDS011;8007;51.404;6.304;2023-08-12T09:17:32;2.47;;;2.10;;
15812;SDS011;8007;51.404;6.304;2023-08-12T09:19:36;2.40;;;2.20;;
15812;SDS011;8007;51.404;6.304;2023-08-12T09:21:38;2.83;;;2.57;;
15812;SDS011;8007;51.404;6.304;2023-08-12T09:23:41;2.03;;;1.93;;
15812;SDS011;8007;51.404;6.304;2023-08-12T09:25:44;2.30;;;2.00;;
15812;SDS011;8007;51.404;6.304;2023-08-12T09:27:47;2.83;;;1.90;;
15812;SDS011;8007;51.404;6.304;2023-08-12T09:29:49;2.70;;;2.00;;
15812;SDS011;8007;51.404;6.304;2023-08-12T09:31:53;2.37;;;2.23;;
15812;SDS011;8007;51.404;6.304;2023-08-12T09:33:57;2.50;;;2.30;;
15812;SDS011;8007;51.404;6.304;2023-08-12T09:36:01;2.20;;;2.00;;
15812;SDS011;8007;51.404;6.304;2023-08-12T09:38:04;2.60;;;2.17;;
15812;SDS011;8007;51.404;6.304;2023-08-12T09:40:09;2.45;;;1.83;;
15812;SDS011;8007;51.404;6.304;2023-08-12T09:42:12;2.13;;;1.98;;
15812;SDS011;8007;51.404;6.304;2023-08-12T09:44:15;3.83;;;2.20;;
15812;SDS011;8007;51.404;6.304;2023-08-12T09:46:17;2.28;;;2.08;;
15812;SDS011;8007;51.404;6.304;2023-08-12T09:48:23;2.72;;;2.53;;
15812;SDS011;8007;51.404;6.304;2023-08-12T09:50:26;2.53;;;2.00;;
15812;SDS011;8007;51.404;6.304;2023-08-12T09:52:31;2.90;;;2.17;;
15812;SDS011;8007;51.404;6.304;2023-08-12T09:54:33;2.08;;;1.98;;
15812;SDS011;8007;51.404;6.304;2023-08-12T09:56:36;1.80;;;1.70;;
15812;SDS011;8007;51.404;6.304;2023-08-12T09:58:39;3.28;;;2.03;;
15812;SDS011;8007;51.404;6.304;2023-08-12T10:00:43;3.10;;;2.10;;
15812;SDS011;8007;51.404;6.304;2023-08-12T10:02:46;4.07;;;1.95;;
15812;SDS011;8007;51.404;6.304;2023-08-12T10:04:52;3.55;;;2.03;;
15812;SDS011;8007;51.404;6.304;2023-08-12T10:06:56;2.05;;;1.95;;
15812;SDS011;8007;51.404;6.304;2023-08-12T10:09:00;2.08;;;1.98;;
15812;SDS011;8007;51.404;6.304;2023-08-12T10:11:04;2.00;;;1.90;;
15812;SDS011;8007;51.404;6.304;2023-08-12T10:13:08;2.05;;;1.67;;
15812;SDS011;8007;51.404;6.304;2023-08-12T10:15:11;2.25;;;2.03;;
15812;SDS011;8007;51.404;6.304;2023-08-12T10:17:13;2.25;;;1.58;;
15812;SDS011;8007;51.404;6.304;2023-08-12T10:19:16;3.75;;;1.88;;
15812;SDS011;8007;51.404;6.304;2023-08-12T10:21:19;2.10;;;1.90;;
15812;SDS011;8007;51.404;6.304;2023-08-12T10:23:22;2.00;;;1.90;;
15812;SDS011;8007;51.404;6.304;2023-08-12T10:25:29;1.50;;;1.40;;
15812;SDS011;8007;51.404;6.304;2023-08-12T10:27:36;1.60;;;1.50;;
15812;SDS011;8007;51.404;6.304;2023-08-12T10:29:37;1.70;;;1.60;;
15812;SDS011;8007;51.404;6.304;2023-08-12T10:31:40;1.92;;;1.83;;
15812;SDS011;8007;51.404;6.304;2023-08-12T10:33:44;4.10;;;3.00;;
15812;SDS011;8007;51.404;6.304;2023-08-12T10:35:49;4.90;;;3.78;;
15812;SDS011;8007;51.404;6.304;2023-08-12T10:37:52;4.55;;;4.15;;
15812;SDS011;8007;51.404;6.304;2023-08-12T10:39:54;4.47;;;4.07;;
15812;SDS011;8007;51.404;6.304;2023-08-12T10:41:59;5.10;;;4.70;;
15812;SDS011;8007;51.404;6.304;2023-08-12T10:44:05;4.70;;;4.20;;
15812;SDS011;8007;51.404;6.304;2023-08-12T10:46:07;4.82;;;4.43;;
15812;SDS011;8007;51.404;6.304;2023-08-12T10:48:24;4.82;;;4.43;;
15812;SDS011;8007;51.404;6.304;2023-08-12T10:50:27;4.47;;;4.07;;
15812;SDS011;8007;51.404;6.304;2023-08-12T10:52:33;4.93;;;4.47;;
15812;SDS011;8007;51.404;6.304;2023-08-12T10:54:36;5.22;;;4.60;;
15812;SDS011;8007;51.404;6.304;2023-08-12T10:59:14;5.25;;;4.82;;
15812;SDS011;8007;51.404;6.304;2023-08-12T11:01:53;5.80;;;4.13;;
15812;SDS011;8007;51.404;6.304;2023-08-12T11:03:56;5.90;;;5.40;;
15812;SDS011;8007;51.404;6.304;2023-08-12T11:06:00;5.72;;;5.22;;
15812;SDS011;8007;51.404;6.304;2023-08-12T11:08:03;5.47;;;4.97;;
15812;SDS011;8007;51.404;6.304;2023-08-12T11:10:17;5.75;;;5.25;;
15812;SDS011;8007;51.404;6.304;2023-08-12T11:12:32;6.75;;;6.05;;
15812;SDS011;8007;51.404;6.304;2023-08-12T11:14:46;6.35;;;5.75;;
15812;SDS011;8007;51.404;6.304;2023-08-12T11:16:49;6.10;;;5.60;;
15812;SDS011;8007;51.404;6.304;2023-08-12T11:18:55;6.70;;;6.10;;
15812;SDS011;8007;51.404;6.304;2023-08-12T11:20:57;6.65;;;6.05;;
15812;SDS011;8007;51.404;6.304;2023-08-12T11:23:03;6.88;;;6.20;;
15812;SDS011;8007;51.404;6.304;2023-08-12T11:25:07;6.93;;;6.20;;
15812;SDS011;8007;51.404;6.304;2023-08-12T11:27:10;6.60;;;5.97;;
15812;SDS011;8007;51.404;6.304;2023-08-12T11:29:14;5.80;;;5.30;;
15812;SDS011;8007;51.404;6.304;2023-08-12T11:31:18;6.80;;;6.13;;
15812;SDS011;8007;51.404;6.304;2023-08-12T11:33:20;8.60;;;6.18;;
15812;SDS011;8007;51.404;6.304;2023-08-12T11:35:23;6.32;;;5.75;;
15812;SDS011;8007;51.404;6.304;2023-08-12T11:37:26;6.03;;;5.53;;
15812;SDS011;8007;51.404;6.304;2023-08-12T11:39:27;5.68;;;5.18;;
15812;SDS011;8007;51.404;6.304;2023-08-12T11:41:30;5.65;;;5.15;;
15812;SDS011;8007;51.404;6.304;2023-08-12T11:43:32;5.90;;;5.40;;
15812;SDS011;8007;51.404;6.304;2023-08-12T11:45:41;6.85;;;6.15;;
15812;SDS011;8007;51.404;6.304;2023-08-12T11:47:44;6.88;;;6.28;;
15812;SDS011;8007;51.404;6.304;2023-08-12T11:49:52;7.03;;;6.32;;
15812;SDS011;8007;51.404;6.304;2023-08-12T11:51:55;6.82;;;6.13;;
15812;SDS011;8007;51.404;6.304;2023-08-12T11:53:57;5.70;;;5.22;;
15812;SDS011;8007;51.404;6.304;2023-08-12T11:56:00;7.82;;;7.03;;
15812;SDS011;8007;51.404;6.304;2023-08-12T11:58:03;7.43;;;6.82;;
15812;SDS011;8007;51.404;6.304;2023-08-12T12:00:07;7.10;;;6.40;;
15812;SDS011;8007;51.404;6.304;2023-08-12T12:02:14;8.25;;;7.35;;
15812;SDS011;8007;51.404;6.304;2023-08-12T12:04:17;7.40;;;6.53;;
15812;SDS011;8007;51.404;6.304;2023-08-12T12:06:27;7.05;;;6.40;;
15812;SDS011;8007;51.404;6.304;2023-08-12T12:08:31;7.30;;;6.63;;
15812;SDS011;8007;51.404;6.304;2023-08-12T12:10:34;7.05;;;6.45;;
15812;SDS011;8007;51.404;6.304;2023-08-12T12:12:37;8.75;;;6.72;;
15812;SDS011;8007;51.404;6.304;2023-08-12T12:14:39;7.50;;;6.80;;
15812;SDS011;8007;51.404;6.304;2023-08-12T12:16:42;6.93;;;6.32;;
15812;SDS011;8007;51.404;6.304;2023-08-12T12:18:47;6.80;;;6.05;;
15812;SDS011;8007;51.404;6.304;2023-08-12T12:20:55;6.72;;;6.22;;
15812;SDS011;8007;51.404;6.304;2023-08-12T12:23:04;6.40;;;5.85;;
15812;SDS011;8007;51.404;6.304;2023-08-12T12:25:08;7.15;;;6.45;;